< Typhoon 195815 1958 Season Typhoon 195817 >
Typhoon 195816 (NO-NAME)
General InformationTrack Information on Google Maps || Disaster Info.ResourceGoogle EarthGE AnimationAtom FeedGeoJSON
Detalied Best Track (Time Zone = UTC)
Year Month Day Hour Lat. Long. Pressure (hPa) Wind (kt) Class Image Chart
1958 8 5 00 19.8 116.1 1004 0 2 -- Chart
1958 8 5 06 20.1 116.1 1002 0 2 -- Chart
1958 8 5 12 20.4 116.0 1002 0 2 -- Chart
1958 8 5 18 20.4 115.8 1002 0 2 -- Chart
1958 8 6 00 20.4 115.5 1000 0 2 -- Chart
1958 8 6 06 20.3 114.9 1000 0 2 -- Chart
1958 8 6 12 20.2 114.2 1000 0 2 -- Chart
1958 8 6 18 20.2 113.5 1000 0 2 -- Chart
1958 8 7 00 20.4 113.0 1000 0 2 -- Chart
1958 8 7 06 20.6 112.5 1000 0 2 -- Chart
1958 8 7 12 20.9 112.4 1000 0 2 -- Chart
1958 8 7 18 21.2 112.4 1000 0 2 -- Chart
1958 8 8 00 21.4 112.5 1000 0 2 -- Chart
1958 8 8 06 21.6 112.3 998 0 2 -- Chart
1958 8 8 12 21.7 112.1 995 0 9 -- Chart
1958 8 8 18 21.6 111.4 995 0 9 -- Chart
1958 8 9 00 21.5 111.0 1000 0 9 -- Chart
1958 8 9 06 21.6 110.4 1002 0 2 -- Chart
1958 8 9 12 21.6 109.9 1002 0 2 -- Chart
1958 8 9 18 21.6 109.3 1002 0 2 -- Chart
1958 8 10 00 20.0 107.0 1004 0 2 -- Chart
1958 8 10 06 20.0 107.0 1002 0 2 -- Chart
1958 8 10 12 20.0 107.0 1002 0 2 -- Chart
1958 8 10 18 20.0 107.0 1002 0 2 -- Chart
1958 8 11 00 21.3 106.0 1002 0 2 -- Chart
Japan Meteorological Agency Best Track Data | Correction Date : 1989-06-01
< Typhoon 195815 1958 Season Typhoon 195817 >

Help